sensor_id;sensor_type;location;lat;lon;timestamp;pressure;altitude;pressure_sealevel;temperature;humidity
52651;BME280;38537;47.226;39.702;2023-02-17T00:01:18;101390.53;;;-0.80;67.93
52651;BME280;38537;47.226;39.702;2023-02-17T00:03:50;101376.84;;;-0.74;67.76
52651;BME280;38537;47.226;39.702;2023-02-17T00:06:24;101370.94;;;-0.64;67.91
52651;BME280;38537;47.226;39.702;2023-02-17T00:08:53;101381.06;;;-0.38;67.92
52651;BME280;38537;47.226;39.702;2023-02-17T00:11:20;101373.72;;;-0.44;67.25
52651;BME280;38537;47.226;39.702;2023-02-17T00:13:48;101381.28;;;-0.53;67.44
52651;BME280;38537;47.226;39.702;2023-02-17T00:16:21;101362.28;;;-0.41;67.36
52651;BME280;38537;47.226;39.702;2023-02-17T00:18:54;101365.25;;;-0.36;67.61
52651;BME280;38537;47.226;39.702;2023-02-17T00:21:23;101369.03;;;-0.37;67.30
52651;BME280;38537;47.226;39.702;2023-02-17T00:23:52;101363.75;;;-0.39;67.55
52651;BME280;38537;47.226;39.702;2023-02-17T00:26:20;101355.53;;;-0.32;67.62
52651;BME280;38537;47.226;39.702;2023-02-17T00:28:48;101359.47;;;0.05;67.57
52651;BME280;38537;47.226;39.702;2023-02-17T00:31:19;101358.38;;;0.26;67.07
52651;BME280;38537;47.226;39.702;2023-02-17T00:33:47;101353.16;;;0.62;67.08
52651;BME280;38537;47.226;39.702;2023-02-17T00:36:17;101359.00;;;0.79;65.84
52651;BME280;38537;47.226;39.702;2023-02-17T00:38:46;101346.09;;;0.80;65.57
52651;BME280;38537;47.226;39.702;2023-02-17T00:41:18;101349.59;;;0.93;65.44
52651;BME280;38537;47.226;39.702;2023-02-17T00:43:46;101354.63;;;1.03;65.54
52651;BME280;38537;47.226;39.702;2023-02-17T00:46:15;101354.88;;;1.26;65.18
52651;BME280;38537;47.226;39.702;2023-02-17T00:48:46;101345.63;;;1.46;64.20
52651;BME280;38537;47.226;39.702;2023-02-17T00:51:14;101350.13;;;1.65;63.91
52651;BME280;38537;47.226;39.702;2023-02-17T00:53:44;101345.06;;;1.62;63.83
52651;BME280;38537;47.226;39.702;2023-02-17T00:56:12;101335.00;;;1.74;63.76
52651;BME280;38537;47.226;39.702;2023-02-17T00:58:40;101334.22;;;1.67;63.09
52651;BME280;38537;47.226;39.702;2023-02-17T01:01:08;101338.41;;;1.51;62.94
52651;BME280;38537;47.226;39.702;2023-02-17T01:03:39;101338.88;;;1.42;63.55
52651;BME280;38537;47.226;39.702;2023-02-17T01:06:19;101325.63;;;1.32;63.61
52651;BME280;38537;47.226;39.702;2023-02-17T01:08:47;101331.03;;;1.20;63.54
52651;BME280;38537;47.226;39.702;2023-02-17T01:11:20;101333.38;;;1.42;64.49
52651;BME280;38537;47.226;39.702;2023-02-17T01:13:47;101334.94;;;1.56;63.90
52651;BME280;38537;47.226;39.702;2023-02-17T01:16:20;101341.47;;;1.61;63.45
52651;BME280;38537;47.226;39.702;2023-02-17T01:18:48;101318.84;;;1.34;63.20
52651;BME280;38537;47.226;39.702;2023-02-17T01:21:19;101335.78;;;1.31;63.59
52651;BME280;38537;47.226;39.702;2023-02-17T01:23:50;101326.25;;;1.34;64.29
52651;BME280;38537;47.226;39.702;2023-02-17T01:26:21;101327.25;;;1.40;64.40
52651;BME280;38537;47.226;39.702;2023-02-17T01:28:50;101320.59;;;1.29;63.97
52651;BME280;38537;47.226;39.702;2023-02-17T01:31:20;101322.66;;;1.33;63.97
52651;BME280;38537;47.226;39.702;2023-02-17T01:33:48;101332.47;;;1.23;63.77
52651;BME280;38537;47.226;39.702;2023-02-17T01:36:17;101330.28;;;1.31;64.25
52651;BME280;38537;47.226;39.702;2023-02-17T01:38:45;101335.69;;;1.20;63.94
52651;BME280;38537;47.226;39.702;2023-02-17T01:41:15;101330.06;;;1.08;64.25
52651;BME280;38537;47.226;39.702;2023-02-17T01:44:01;101333.53;;;0.90;64.25
52651;BME280;38537;47.226;39.702;2023-02-17T01:46:34;101326.84;;;0.80;65.36
52651;BME280;38537;47.226;39.702;2023-02-17T01:49:19;101314.28;;;0.59;65.11
52651;BME280;38537;47.226;39.702;2023-02-17T01:51:53;101327.00;;;0.47;65.51
52651;BME280;38537;47.226;39.702;2023-02-17T01:54:26;101319.88;;;0.39;66.27
52651;BME280;38537;47.226;39.702;2023-02-17T01:56:56;101316.81;;;0.09;65.93
52651;BME280;38537;47.226;39.702;2023-02-17T01:59:25;101328.84;;;0.02;66.58
52651;BME280;38537;47.226;39.702;2023-02-17T02:01:58;101329.69;;;0.09;67.26
52651;BME280;38537;47.226;39.702;2023-02-17T02:04:29;101326.97;;;0.02;67.30
52651;BME280;38537;47.226;39.702;2023-02-17T02:06:58;101329.13;;;-0.07;67.03
52651;BME280;38537;47.226;39.702;2023-02-17T02:09:34;101348.13;;;-0.18;67.82
52651;BME280;38537;47.226;39.702;2023-02-17T02:12:13;101336.97;;;-0.37;68.02
52651;BME280;38537;47.226;39.702;2023-02-17T02:14:44;101331.72;;;-0.45;68.12
52651;BME280;38537;47.226;39.702;2023-02-17T02:33:55;101355.09;;;-0.82;69.32
52651;BME280;38537;47.226;39.702;2023-02-17T02:36:31;101347.50;;;-0.93;69.55
52651;BME280;38537;47.226;39.702;2023-02-17T02:39:13;101356.34;;;-0.97;70.02
52651;BME280;38537;47.226;39.702;2023-02-17T02:41:46;101358.25;;;-1.11;69.68
52651;BME280;38537;47.226;39.702;2023-02-17T02:44:18;101355.03;;;-1.21;69.96
52651;BME280;38537;47.226;39.702;2023-02-17T02:47:29;101358.81;;;-1.22;71.26
52651;BME280;38537;47.226;39.702;2023-02-17T02:49:49;101348.69;;;-1.35;69.97
52651;BME280;38537;47.226;39.702;2023-02-17T02:52:29;101354.16;;;-1.28;70.53
52651;BME280;38537;47.226;39.702;2023-02-17T02:58:16;101362.22;;;-1.20;71.45
52651;BME280;38537;47.226;39.702;2023-02-17T03:09:23;101349.34;;;-1.33;70.61
52651;BME280;38537;47.226;39.702;2023-02-17T03:11:52;101357.75;;;-1.34;69.93
52651;BME280;38537;47.226;39.702;2023-02-17T03:14:22;101357.72;;;-1.41;70.46
52651;BME280;38537;47.226;39.702;2023-02-17T03:16:50;101362.56;;;-1.43;70.10
52651;BME280;38537;47.226;39.702;2023-02-17T03:19:21;101348.25;;;-1.39;70.77
52651;BME280;38537;47.226;39.702;2023-02-17T03:22:14;101335.19;;;-1.36;70.80
52651;BME280;38537;47.226;39.702;2023-02-17T03:24:46;101359.66;;;-1.28;70.49
52651;BME280;38537;47.226;39.702;2023-02-17T03:27:13;101357.94;;;-1.43;69.72
52651;BME280;38537;47.226;39.702;2023-02-17T03:29:41;101361.50;;;-1.42;69.49
52651;BME280;38537;47.226;39.702;2023-02-17T03:32:08;101362.31;;;-1.55;69.75
52651;BME280;38537;47.226;39.702;2023-02-17T03:34:36;101364.16;;;-1.62;69.46
52651;BME280;38537;47.226;39.702;2023-02-17T03:37:03;101367.38;;;-1.52;69.61
52651;BME280;38537;47.226;39.702;2023-02-17T03:39:30;101366.72;;;-1.60;69.81
52651;BME280;38537;47.226;39.702;2023-02-17T03:41:57;101377.50;;;-1.52;69.66
52651;BME280;38537;47.226;39.702;2023-02-17T03:44:24;101373.88;;;-1.59;70.01
52651;BME280;38537;47.226;39.702;2023-02-17T03:46:52;101384.88;;;-1.53;69.46
52651;BME280;38537;47.226;39.702;2023-02-17T03:49:19;101365.41;;;-1.64;69.32
52651;BME280;38537;47.226;39.702;2023-02-17T03:51:46;101384.03;;;-1.53;69.40
52651;BME280;38537;47.226;39.702;2023-02-17T03:54:14;101377.47;;;-1.59;68.69
52651;BME280;38537;47.226;39.702;2023-02-17T03:56:41;101385.06;;;-1.48;69.19
52651;BME280;38537;47.226;39.702;2023-02-17T03:59:08;101381.66;;;-1.63;68.75
52651;BME280;38537;47.226;39.702;2023-02-17T04:01:35;101372.59;;;-1.63;69.04
52651;BME280;38537;47.226;39.702;2023-02-17T04:04:03;101352.28;;;-1.82;68.66
52651;BME280;38537;47.226;39.702;2023-02-17T04:06:31;101373.38;;;-1.76;68.67
52651;BME280;38537;47.226;39.702;2023-02-17T04:08:58;101385.19;;;-1.69;68.97
52651;BME280;38537;47.226;39.702;2023-02-17T04:11:26;101378.84;;;-1.76;68.61
52651;BME280;38537;47.226;39.702;2023-02-17T04:13:53;101373.72;;;-1.86;68.54
52651;BME280;38537;47.226;39.702;2023-02-17T04:16:21;101381.09;;;-1.86;68.67
52651;BME280;38537;47.226;39.702;2023-02-17T04:18:48;101372.66;;;-1.91;68.55
52651;BME280;38537;47.226;39.702;2023-02-17T04:21:15;101364.63;;;-1.99;68.30
52651;BME280;38537;47.226;39.702;2023-02-17T04:23:43;101375.81;;;-1.88;68.59
52651;BME280;38537;47.226;39.702;2023-02-17T04:26:11;101379.59;;;-1.89;68.62
52651;BME280;38537;47.226;39.702;2023-02-17T04:28:39;101386.56;;;-1.86;68.50
52651;BME280;38537;47.226;39.702;2023-02-17T04:31:08;101383.72;;;-2.06;68.46
52651;BME280;38537;47.226;39.702;2023-02-17T04:33:37;101386.84;;;-2.09;68.31
52651;BME280;38537;47.226;39.702;2023-02-17T04:36:04;101386.97;;;-2.24;68.35
52651;BME280;38537;47.226;39.702;2023-02-17T04:38:32;101378.22;;;-2.40;68.77
52651;BME280;38537;47.226;39.702;2023-02-17T04:41:00;101389.97;;;-2.19;68.67
52651;BME280;38537;47.226;39.702;2023-02-17T04:43:27;101383.13;;;-2.29;67.98
52651;BME280;38537;47.226;39.702;2023-02-17T04:45:55;101392.84;;;-2.27;68.54
52651;BME280;38537;47.226;39.702;2023-02-17T04:48:24;101400.59;;;-2.30;68.19
52651;BME280;38537;47.226;39.702;2023-02-17T04:50:52;101406.56;;;-2.20;68.14
52651;BME280;38537;47.226;39.702;2023-02-17T04:53:21;101390.75;;;-2.25;68.30
52651;BME280;38537;47.226;39.702;2023-02-17T04:55:50;101390.75;;;-2.25;68.33
52651;BME280;38537;47.226;39.702;2023-02-17T04:58:18;101383.34;;;-2.31;68.08
52651;BME280;38537;47.226;39.702;2023-02-17T05:00:47;101392.13;;;-2.35;67.98
52651;BME280;38537;47.226;39.702;2023-02-17T05:03:16;101399.59;;;-2.23;67.89
52651;BME280;38537;47.226;39.702;2023-02-17T05:05:43;101387.22;;;-2.19;68.12
52651;BME280;38537;47.226;39.702;2023-02-17T05:08:10;101376.81;;;-2.30;67.86
52651;BME280;38537;47.226;39.702;2023-02-17T05:10:38;101401.97;;;-2.13;67.34
52651;BME280;38537;47.226;39.702;2023-02-17T05:13:05;101400.25;;;-2.21;67.89
52651;BME280;38537;47.226;39.702;2023-02-17T05:15:33;101400.09;;;-2.13;67.51
52651;BME280;38537;47.226;39.702;2023-02-17T05:18:01;101390.81;;;-2.12;67.18
52651;BME280;38537;47.226;39.702;2023-02-17T05:20:28;101379.44;;;-2.15;67.08
52651;BME280;38537;47.226;39.702;2023-02-17T05:22:55;101395.91;;;-2.09;66.68
52651;BME280;38537;47.226;39.702;2023-02-17T05:25:23;101400.19;;;-1.99;66.71
52651;BME280;38537;47.226;39.702;2023-02-17T05:27:50;101409.44;;;-2.00;66.67
52651;BME280;38537;47.226;39.702;2023-02-17T05:30:17;101386.72;;;-2.01;67.00
52651;BME280;38537;47.226;39.702;2023-02-17T05:32:45;101398.09;;;-1.97;66.44
52651;BME280;38537;47.226;39.702;2023-02-17T05:35:12;101390.88;;;-2.05;67.33
52651;BME280;38537;47.226;39.702;2023-02-17T05:37:39;101389.75;;;-2.17;66.51
52651;BME280;38537;47.226;39.702;2023-02-17T05:40:07;101389.44;;;-2.29;66.99
52651;BME280;38537;47.226;39.702;2023-02-17T05:42:34;101404.16;;;-2.30;67.01
52651;BME280;38537;47.226;39.702;2023-02-17T05:45:01;101401.63;;;-2.31;67.16
52651;BME280;38537;47.226;39.702;2023-02-17T05:47:29;101396.53;;;-2.41;67.42
52651;BME280;38537;47.226;39.702;2023-02-17T05:49:57;101404.16;;;-2.30;67.35
52651;BME280;38537;47.226;39.702;2023-02-17T05:52:24;101394.53;;;-2.26;67.54
52651;BME280;38537;47.226;39.702;2023-02-17T05:54:53;101386.13;;;-2.24;67.05
52651;BME280;38537;47.226;39.702;2023-02-17T05:57:21;101406.50;;;-1.99;66.87
52651;BME280;38537;47.226;39.702;2023-02-17T05:59:48;101390.75;;;-1.90;66.98
52651;BME280;38537;47.226;39.702;2023-02-17T06:02:15;101409.38;;;-1.79;66.90
52651;BME280;38537;47.226;39.702;2023-02-17T06:04:42;101394.38;;;-1.83;66.40
52651;BME280;38537;47.226;39.702;2023-02-17T06:07:10;101398.22;;;-1.71;66.04
52651;BME280;38537;47.226;39.702;2023-02-17T06:09:37;101413.84;;;-1.65;66.13
52651;BME280;38537;47.226;39.702;2023-02-17T06:12:04;101410.28;;;-1.65;65.95
52651;BME280;38537;47.226;39.702;2023-02-17T06:14:31;101384.38;;;-1.63;66.26
52651;BME280;38537;47.226;39.702;2023-02-17T06:16:59;101389.50;;;-1.47;65.61
52651;BME280;38537;47.226;39.702;2023-02-17T06:19:27;101396.94;;;-1.34;65.38
52651;BME280;38537;47.226;39.702;2023-02-17T06:21:54;101399.28;;;-1.24;65.74
52651;BME280;38537;47.226;39.702;2023-02-17T06:24:23;101399.75;;;-1.14;65.24
52651;BME280;38537;47.226;39.702;2023-02-17T06:26:51;101407.75;;;-1.06;65.13
52651;BME280;38537;47.226;39.702;2023-02-17T06:29:18;101400.38;;;-1.06;64.92
52651;BME280;38537;47.226;39.702;2023-02-17T06:31:45;101404.41;;;-1.01;64.55
52651;BME280;38537;47.226;39.702;2023-02-17T06:34:13;101401.50;;;-0.93;64.57
52651;BME280;38537;47.226;39.702;2023-02-17T06:36:40;101401.94;;;-0.90;64.34
52651;BME280;38537;47.226;39.702;2023-02-17T06:39:07;101403.19;;;-0.86;64.43
52651;BME280;38537;47.226;39.702;2023-02-17T06:41:36;101388.88;;;-0.75;64.18
52651;BME280;38537;47.226;39.702;2023-02-17T06:44:03;101392.47;;;-0.67;63.84
52651;BME280;38537;47.226;39.702;2023-02-17T06:46:31;101392.88;;;-0.64;63.93
52651;BME280;38537;47.226;39.702;2023-02-17T06:48:58;101397.13;;;-0.68;62.97
52651;BME280;38537;47.226;39.702;2023-02-17T06:51:27;101400.50;;;-0.66;63.28
52651;BME280;38537;47.226;39.702;2023-02-17T06:53:55;101397.31;;;-0.63;62.36
52651;BME280;38537;47.226;39.702;2023-02-17T06:56:22;101385.50;;;-0.63;62.53
52651;BME280;38537;47.226;39.702;2023-02-17T06:58:50;101372.03;;;-0.45;62.94
52651;BME280;38537;47.226;39.702;2023-02-17T07:01:19;101379.19;;;-0.31;61.93
52651;BME280;38537;47.226;39.702;2023-02-17T07:03:47;101381.25;;;-0.20;62.28
52651;BME280;38537;47.226;39.702;2023-02-17T07:06:14;101367.75;;;-0.21;61.98
52651;BME280;38537;47.226;39.702;2023-02-17T07:08:42;101384.22;;;-0.08;61.41
52651;BME280;38537;47.226;39.702;2023-02-17T07:11:11;101385.88;;;0.06;61.15
52651;BME280;38537;47.226;39.702;2023-02-17T07:13:39;101375.53;;;0.15;60.67
52651;BME280;38537;47.226;39.702;2023-02-17T07:16:08;101383.94;;;0.26;60.93
52651;BME280;38537;47.226;39.702;2023-02-17T07:18:36;101379.47;;;0.32;59.91
52651;BME280;38537;47.226;39.702;2023-02-17T07:21:07;101376.06;;;0.43;60.07
52651;BME280;38537;47.226;39.702;2023-02-17T07:23:36;101379.19;;;0.53;59.42
52651;BME280;38537;47.226;39.702;2023-02-17T07:26:07;101381.28;;;0.58;58.25
52651;BME280;38537;47.226;39.702;2023-02-17T07:28:36;101374.47;;;0.67;58.92
52651;BME280;38537;47.226;39.702;2023-02-17T07:31:12;101372.53;;;0.81;58.44
52651;BME280;38537;47.226;39.702;2023-02-17T07:33:40;101358.34;;;0.84;58.27
52651;BME280;38537;47.226;39.702;2023-02-17T07:36:12;101366.06;;;1.00;58.60
52651;BME280;38537;47.226;39.702;2023-02-17T07:38:41;101375.50;;;1.11;57.06
52651;BME280;38537;47.226;39.702;2023-02-17T07:41:11;101373.53;;;1.24;57.05
52651;BME280;38537;47.226;39.702;2023-02-17T07:43:39;101371.81;;;1.30;56.62
52651;BME280;38537;47.226;39.702;2023-02-17T07:46:08;101365.78;;;1.40;56.41
52651;BME280;38537;47.226;39.702;2023-02-17T07:48:37;101363.63;;;1.48;58.03
52651;BME280;38537;47.226;39.702;2023-02-17T07:51:12;101351.91;;;1.53;56.34
52651;BME280;38537;47.226;39.702;2023-02-17T07:53:41;101350.00;;;1.53;55.89
52651;BME280;38537;47.226;39.702;2023-02-17T07:56:10;101367.53;;;1.59;56.11
52651;BME280;38537;47.226;39.702;2023-02-17T07:58:39;101364.34;;;1.62;56.95
52651;BME280;38537;47.226;39.702;2023-02-17T08:01:14;101358.34;;;1.71;57.21
52651;BME280;38537;47.226;39.702;2023-02-17T08:03:43;101353.69;;;1.90;58.31
52651;BME280;38537;47.226;39.702;2023-02-17T08:06:13;101362.44;;;2.05;57.31
52651;BME280;38537;47.226;39.702;2023-02-17T08:08:41;101351.97;;;2.32;59.23
52651;BME280;38537;47.226;39.702;2023-02-17T08:11:27;101352.41;;;2.48;58.04
52651;BME280;38537;47.226;39.702;2023-02-17T08:14:16;101346.84;;;2.54;58.28
52651;BME280;38537;47.226;39.702;2023-02-17T08:16:43;101339.44;;;2.66;58.03
52651;BME280;38537;47.226;39.702;2023-02-17T08:19:10;101349.28;;;2.92;58.71
52651;BME280;38537;47.226;39.702;2023-02-17T08:21:38;101347.06;;;3.01;58.11
52651;BME280;38537;47.226;39.702;2023-02-17T08:24:05;101353.06;;;3.09;57.38
52651;BME280;38537;47.226;39.702;2023-02-17T08:26:33;101338.25;;;3.22;59.06
52651;BME280;38537;47.226;39.702;2023-02-17T08:29:00;101350.84;;;3.30;57.51
52651;BME280;38537;47.226;39.702;2023-02-17T08:31:30;101345.59;;;3.40;57.74
52651;BME280;38537;47.226;39.702;2023-02-17T08:34:00;101349.22;;;3.52;57.50
52651;BME280;38537;47.226;39.702;2023-02-17T08:36:28;101344.78;;;3.63;58.20
52651;BME280;38537;47.226;39.702;2023-02-17T08:38:56;101338.78;;;3.66;58.69
52651;BME280;38537;47.226;39.702;2023-02-17T08:41:35;101333.41;;;3.83;58.31
52651;BME280;38537;47.226;39.702;2023-02-17T08:44:08;101337.94;;;3.77;57.63
52651;BME280;38537;47.226;39.702;2023-02-17T08:46:36;101329.28;;;3.73;58.03
52651;BME280;38537;47.226;39.702;2023-02-17T08:49:04;101328.94;;;3.58;57.26
52651;BME280;38537;47.226;39.702;2023-02-17T08:51:33;101328.69;;;3.60;58.76
52651;BME280;38537;47.226;39.702;2023-02-17T08:54:02;101334.69;;;3.68;58.11
52651;BME280;38537;47.226;39.702;2023-02-17T08:56:31;101333.03;;;3.67;57.88
52651;BME280;38537;47.226;39.702;2023-02-17T08:58:58;101329.63;;;3.42;57.30
52651;BME280;38537;47.226;39.702;2023-02-17T09:01:27;101334.19;;;3.36;57.52
52651;BME280;38537;47.226;39.702;2023-02-17T09:03:56;101327.81;;;3.24;57.35
52651;BME280;38537;47.226;39.702;2023-02-17T09:06:33;101313.66;;;3.32;58.58
52651;BME280;38537;47.226;39.702;2023-02-17T09:09:02;101320.75;;;3.40;59.33
52651;BME280;38537;47.226;39.702;2023-02-17T09:11:30;101317.63;;;3.36;57.60
52651;BME280;38537;47.226;39.702;2023-02-17T09:13:58;101297.47;;;3.48;58.26
52651;BME280;38537;47.226;39.702;2023-02-17T09:16:25;101296.16;;;3.38;56.99
52651;BME280;38537;47.226;39.702;2023-02-17T09:18:53;101308.59;;;3.29;56.96
52651;BME280;38537;47.226;39.702;2023-02-17T09:21:20;101300.31;;;3.29;57.49
52651;BME280;38537;47.226;39.702;2023-02-17T09:23:48;101301.75;;;3.20;57.44
52651;BME280;38537;47.226;39.702;2023-02-17T09:26:16;101301.56;;;3.03;56.91
52651;BME280;38537;47.226;39.702;2023-02-17T09:28:44;101297.09;;;2.91;57.37
52651;BME280;38537;47.226;39.702;2023-02-17T09:31:22;101290.75;;;2.90;57.16
52651;BME280;38537;47.226;39.702;2023-02-17T09:33:50;101271.41;;;2.79;57.61
52651;BME280;38537;47.226;39.702;2023-02-17T09:36:26;101293.94;;;2.75;57.09
52651;BME280;38537;47.226;39.702;2023-02-17T09:38:55;101283.47;;;2.66;57.01
52651;BME280;38537;47.226;39.702;2023-02-17T09:44:06;101286.69;;;2.93;58.37
52651;BME280;38537;47.226;39.702;2023-02-17T09:46:43;101274.72;;;2.99;56.92
52651;BME280;38537;47.226;39.702;2023-02-17T09:49:31;101278.09;;;3.13;58.13
52651;BME280;38537;47.226;39.702;2023-02-17T09:52:21;101285.06;;;3.15;57.66
52651;BME280;38537;47.226;39.702;2023-02-17T09:57:26;101268.28;;;3.17;58.09
52651;BME280;38537;47.226;39.702;2023-02-17T10:00:01;101260.47;;;3.14;56.79
52651;BME280;38537;47.226;39.702;2023-02-17T10:02:43;101264.63;;;3.04;57.40
52651;BME280;38537;47.226;39.702;2023-02-17T10:05:14;101261.41;;;3.07;57.66
52651;BME280;38537;47.226;39.702;2023-02-17T10:07:50;101253.59;;;3.04;58.12
52651;BME280;38537;47.226;39.702;2023-02-17T10:10:24;101246.91;;;3.12;57.53
52651;BME280;38537;47.226;39.702;2023-02-17T10:12:57;101251.59;;;3.12;56.98
52651;BME280;38537;47.226;39.702;2023-02-17T10:15:40;101258.91;;;3.29;58.03
52651;BME280;38537;47.226;39.702;2023-02-17T10:18:19;101257.84;;;3.30;56.25
52651;BME280;38537;47.226;39.702;2023-02-17T10:23:52;101252.31;;;3.30;56.88
52651;BME280;38537;47.226;39.702;2023-02-17T10:29:05;101242.81;;;3.03;56.18
52651;BME280;38537;47.226;39.702;2023-02-17T10:31:46;101243.06;;;3.13;57.14
52651;BME280;38537;47.226;39.702;2023-02-17T10:37:10;101230.69;;;3.04;58.43
52651;BME280;38537;47.226;39.702;2023-02-17T10:39:50;101236.34;;;3.09;57.24
52651;BME280;38537;47.226;39.702;2023-02-17T10:42:26;101242.13;;;3.31;58.02
52651;BME280;38537;47.226;39.702;2023-02-17T10:45:04;101239.59;;;3.29;57.25
52651;BME280;38537;47.226;39.702;2023-02-17T10:47:34;101246.66;;;3.25;56.63
52651;BME280;38537;47.226;39.702;2023-02-17T10:50:04;101237.22;;;3.21;56.67
52651;BME280;38537;47.226;39.702;2023-02-17T10:52:38;101233.84;;;3.31;57.50
52651;BME280;38537;47.226;39.702;2023-02-17T10:55:22;101223.88;;;3.18;55.99
52651;BME280;38537;47.226;39.702;2023-02-17T10:57:56;101236.97;;;3.34;56.14
52651;BME280;38537;47.226;39.702;2023-02-17T11:00:25;101228.69;;;3.34;56.88
52651;BME280;38537;47.226;39.702;2023-02-17T11:02:53;101228.81;;;3.39;57.28
52651;BME280;38537;47.226;39.702;2023-02-17T11:05:30;101222.09;;;3.59;56.84
52651;BME280;38537;47.226;39.702;2023-02-17T11:08:04;101202.88;;;3.29;57.10
52651;BME280;38537;47.226;39.702;2023-02-17T11:10:35;101229.75;;;3.33;56.81
52651;BME280;38537;47.226;39.702;2023-02-17T11:13:27;101233.97;;;3.36;57.76
52651;BME280;38537;47.226;39.702;2023-02-17T11:15:54;101219.56;;;3.34;57.71
52651;BME280;38537;47.226;39.702;2023-02-17T11:18:26;101221.84;;;3.49;57.88
52651;BME280;38537;47.226;39.702;2023-02-17T11:21:03;101219.06;;;3.49;57.86
52651;BME280;38537;47.226;39.702;2023-02-17T11:23:32;101215.38;;;3.31;57.93
52651;BME280;38537;47.226;39.702;2023-02-17T11:26:09;101215.59;;;3.18;57.41
52651;BME280;38537;47.226;39.702;2023-02-17T11:28:36;101209.22;;;2.94;57.81
52651;BME280;38537;47.226;39.702;2023-02-17T11:31:04;101210.16;;;2.77;58.72
52651;BME280;38537;47.226;39.702;2023-02-17T11:33:38;101200.72;;;2.96;59.00
52651;BME280;38537;47.226;39.702;2023-02-17T11:36:06;101194.69;;;2.87;58.73
52651;BME280;38537;47.226;39.702;2023-02-17T11:41:07;101193.38;;;2.90;59.17
52651;BME280;38537;47.226;39.702;2023-02-17T11:43:35;101195.91;;;2.91;59.55
52651;BME280;38537;47.226;39.702;2023-02-17T11:52:09;101193.19;;;2.61;59.93
52651;BME280;38537;47.226;39.702;2023-02-17T12:00:15;101185.22;;;2.12;60.90
52651;BME280;38537;47.226;39.702;2023-02-17T12:06:35;101174.72;;;1.90;62.51
52651;BME280;38537;47.226;39.702;2023-02-17T12:09:10;101171.03;;;1.78;62.63
52651;BME280;38537;47.226;39.702;2023-02-17T12:11:49;101171.13;;;1.71;62.48
52651;BME280;38537;47.226;39.702;2023-02-17T12:14:29;101174.31;;;1.87;62.38
52651;BME280;38537;47.226;39.702;2023-02-17T12:19:47;101161.78;;;1.36;63.21
52651;BME280;38537;47.226;39.702;2023-02-17T12:25:21;101153.38;;;1.31;63.49
52651;BME280;38537;47.226;39.702;2023-02-17T12:28:45;101140.09;;;1.28;64.26
52651;BME280;38537;47.226;39.702;2023-02-17T12:33:56;101145.72;;;1.33;64.06
52651;BME280;38537;47.226;39.702;2023-02-17T12:36:33;101141.06;;;1.52;63.81
52651;BME280;38537;47.226;39.702;2023-02-17T12:39:04;101126.00;;;1.54;63.65
52651;BME280;38537;47.226;39.702;2023-02-17T12:41:45;101125.09;;;1.60;63.25
52651;BME280;38537;47.226;39.702;2023-02-17T12:46:47;101123.59;;;1.46;63.78
52651;BME280;38537;47.226;39.702;2023-02-17T12:49:21;101121.94;;;1.75;63.95
52651;BME280;38537;47.226;39.702;2023-02-17T12:51:54;101121.00;;;1.51;63.54
52651;BME280;38537;47.226;39.702;2023-02-17T12:59:37;101107.44;;;1.68;63.71
52651;BME280;38537;47.226;39.702;2023-02-17T13:02:22;101121.22;;;1.68;64.29
52651;BME280;38537;47.226;39.702;2023-02-17T13:04:55;101117.91;;;1.59;63.51
52651;BME280;38537;47.226;39.702;2023-02-17T13:10:00;101119.84;;;1.41;63.68
52651;BME280;38537;47.226;39.702;2023-02-17T13:12:38;101111.25;;;1.30;65.01
52651;BME280;38537;47.226;39.702;2023-02-17T13:15:29;101091.72;;;1.20;64.86
52651;BME280;38537;47.226;39.702;2023-02-17T13:18:06;101095.75;;;1.18;65.17
52651;BME280;38537;47.226;39.702;2023-02-17T13:20:53;101096.31;;;1.26;64.64
52651;BME280;38537;47.226;39.702;2023-02-17T13:23:32;101100.34;;;1.42;64.91
52651;BME280;38537;47.226;39.702;2023-02-17T13:28:50;101089.00;;;1.68;63.76
52651;BME280;38537;47.226;39.702;2023-02-17T13:31:20;101089.50;;;1.77;63.18
52651;BME280;38537;47.226;39.702;2023-02-17T13:33:51;101073.84;;;1.78;63.76
52651;BME280;38537;47.226;39.702;2023-02-17T13:39:01;101079.31;;;1.66;62.68
52651;BME280;38537;47.226;39.702;2023-02-17T13:41:42;101076.28;;;1.37;63.19
52651;BME280;38537;47.226;39.702;2023-02-17T13:47:03;101062.63;;;0.69;64.75
52651;BME280;38537;47.226;39.702;2023-02-17T13:49:33;101060.25;;;0.55;65.69
52651;BME280;38537;47.226;39.702;2023-02-17T13:52:18;101067.16;;;0.39;66.38
52651;BME280;38537;47.226;39.702;2023-02-17T13:57:30;101062.81;;;0.00;67.53
52651;BME280;38537;47.226;39.702;2023-02-17T14:00:25;101083.72;;;0.26;68.49
52651;BME280;38537;47.226;39.702;2023-02-17T14:03:00;101072.47;;;0.09;67.71
52651;BME280;38537;47.226;39.702;2023-02-17T14:08:02;101062.72;;;0.13;68.26
52651;BME280;38537;47.226;39.702;2023-02-17T14:10:31;101078.09;;;0.21;68.08
52651;BME280;38537;47.226;39.702;2023-02-17T14:12:59;101085.41;;;0.27;68.20
52651;BME280;38537;47.226;39.702;2023-02-17T14:15:27;101082.91;;;0.50;68.16
52651;BME280;38537;47.226;39.702;2023-02-17T14:17:55;101079.41;;;0.86;67.80
52651;BME280;38537;47.226;39.702;2023-02-17T14:20:32;101079.03;;;1.01;67.09
52651;BME280;38537;47.226;39.702;2023-02-17T14:25:35;101065.50;;;0.99;66.34
52651;BME280;38537;47.226;39.702;2023-02-17T14:28:04;101071.84;;;0.82;66.14
52651;BME280;38537;47.226;39.702;2023-02-17T14:30:43;101063.41;;;0.77;66.25
52651;BME280;38537;47.226;39.702;2023-02-17T14:36:14;101058.84;;;0.89;67.63
52651;BME280;38537;47.226;39.702;2023-02-17T14:38:54;101054.13;;;0.78;66.55
52651;BME280;38537;47.226;39.702;2023-02-17T14:41:22;101054.63;;;0.68;66.50
52651;BME280;38537;47.226;39.702;2023-02-17T14:43:49;101054.72;;;0.80;66.76